sensor_id;sensor_type;location;lat;lon;timestamp;P1;durP1;ratioP1;P2;durP2;ratioP2
12788;SDS011;6458;42.710;23.192;2022-09-06T06:34:58;5.40;;;4.90;;
12788;SDS011;6458;42.710;23.192;2022-09-06T06:37:25;5.80;;;5.40;;
12788;SDS011;6458;42.710;23.192;2022-09-06T06:39:53;5.50;;;5.10;;
12788;SDS011;6458;42.710;23.192;2022-09-06T06:42:20;6.87;;;5.40;;
12788;SDS011;6458;42.710;23.192;2022-09-06T06:44:46;5.67;;;5.20;;
12788;SDS011;6458;42.710;23.192;2022-09-06T06:47:13;5.40;;;5.00;;
12788;SDS011;6458;42.710;23.192;2022-09-06T06:49:40;5.90;;;5.50;;
12788;SDS011;6458;42.710;23.192;2022-09-06T06:52:08;5.23;;;4.73;;
12788;SDS011;6458;42.710;23.192;2022-09-06T06:57:38;5.70;;;5.30;;
12788;SDS011;6458;42.710;23.192;2022-09-06T07:00:05;7.27;;;5.17;;
12788;SDS011;6458;42.710;23.192;2022-09-06T07:02:32;5.57;;;5.07;;
12788;SDS011;6458;42.710;23.192;2022-09-06T07:04:59;5.50;;;5.00;;
12788;SDS011;6458;42.710;23.192;2022-09-06T07:07:27;6.67;;;5.33;;
12788;SDS011;6458;42.710;23.192;2022-09-06T07:09:54;7.23;;;4.80;;
12788;SDS011;6458;42.710;23.192;2022-09-06T07:12:21;4.83;;;4.53;;
12788;SDS011;6458;42.710;23.192;2022-09-06T07:14:50;5.53;;;5.13;;
12788;SDS011;6458;42.710;23.192;2022-09-06T07:17:17;5.40;;;4.90;;
12788;SDS011;6458;42.710;23.192;2022-09-06T07:19:44;6.70;;;4.53;;
12788;SDS011;6458;42.710;23.192;2022-09-06T07:22:11;5.20;;;4.80;;
12788;SDS011;6458;42.710;23.192;2022-09-06T07:24:39;5.20;;;4.90;;
12788;SDS011;6458;42.710;23.192;2022-09-06T07:27:06;5.13;;;4.73;;
12788;SDS011;6458;42.710;23.192;2022-09-06T07:29:35;4.43;;;4.13;;
12788;SDS011;6458;42.710;23.192;2022-09-06T07:32:04;5.33;;;4.93;;
12788;SDS011;6458;42.710;23.192;2022-09-06T07:34:30;4.97;;;4.63;;
12788;SDS011;6458;42.710;23.192;2022-09-06T07:36:57;5.30;;;4.90;;
12788;SDS011;6458;42.710;23.192;2022-09-06T07:39:24;5.10;;;4.37;;
12788;SDS011;6458;42.710;23.192;2022-09-06T07:41:52;5.03;;;4.73;;
12788;SDS011;6458;42.710;23.192;2022-09-06T07:44:19;5.10;;;4.70;;
12788;SDS011;6458;42.710;23.192;2022-09-06T07:46:45;5.40;;;4.90;;
12788;SDS011;6458;42.710;23.192;2022-09-06T07:49:12;4.90;;;4.50;;
12788;SDS011;6458;42.710;23.192;2022-09-06T07:51:39;5.23;;;4.80;;
12788;SDS011;6458;42.710;23.192;2022-09-06T07:54:05;5.03;;;4.63;;
12788;SDS011;6458;42.710;23.192;2022-09-06T07:56:32;4.87;;;4.47;;
12788;SDS011;6458;42.710;23.192;2022-09-06T07:59:00;4.67;;;4.37;;
12788;SDS011;6458;42.710;23.192;2022-09-06T08:01:27;5.00;;;4.60;;
12788;SDS011;6458;42.710;23.192;2022-09-06T08:03:55;5.63;;;4.30;;
12788;SDS011;6458;42.710;23.192;2022-09-06T08:06:22;5.40;;;5.00;;
12788;SDS011;6458;42.710;23.192;2022-09-06T08:08:49;5.00;;;4.60;;
12788;SDS011;6458;42.710;23.192;2022-09-06T08:11:16;5.80;;;5.33;;
12788;SDS011;6458;42.710;23.192;2022-09-06T08:13:43;6.60;;;5.00;;
12788;SDS011;6458;42.710;23.192;2022-09-06T08:16:11;5.33;;;4.93;;
12788;SDS011;6458;42.710;23.192;2022-09-06T08:18:39;7.47;;;6.80;;
12788;SDS011;6458;42.710;23.192;2022-09-06T08:21:10;6.80;;;6.27;;
12788;SDS011;6458;42.710;23.192;2022-09-06T08:23:37;6.77;;;6.07;;
12788;SDS011;6458;42.710;23.192;2022-09-06T08:26:04;6.73;;;6.07;;
12788;SDS011;6458;42.710;23.192;2022-09-06T08:28:30;6.00;;;5.50;;
12788;SDS011;6458;42.710;23.192;2022-09-06T08:31:03;6.97;;;5.73;;
12788;SDS011;6458;42.710;23.192;2022-09-06T08:33:31;5.97;;;5.57;;
12788;SDS011;6458;42.710;23.192;2022-09-06T08:35:58;6.63;;;5.50;;
12788;SDS011;6458;42.710;23.192;2022-09-06T08:38:25;5.63;;;5.23;;
12788;SDS011;6458;42.710;23.192;2022-09-06T08:40:53;5.93;;;5.43;;
12788;SDS011;6458;42.710;23.192;2022-09-06T08:43:20;6.57;;;6.03;;
12788;SDS011;6458;42.710;23.192;2022-09-06T08:45:49;6.93;;;6.43;;
12788;SDS011;6458;42.710;23.192;2022-09-06T08:48:18;8.27;;;6.83;;
12788;SDS011;6458;42.710;23.192;2022-09-06T08:50:50;6.07;;;5.57;;
12788;SDS011;6458;42.710;23.192;2022-09-06T08:53:19;6.20;;;5.70;;
12788;SDS011;6458;42.710;23.192;2022-09-06T08:55:47;6.73;;;6.23;;
12788;SDS011;6458;42.710;23.192;2022-09-06T09:01:02;7.67;;;6.97;;
12788;SDS011;6458;42.710;23.192;2022-09-06T09:03:31;7.40;;;6.67;;
12788;SDS011;6458;42.710;23.192;2022-09-06T09:05:59;7.80;;;7.00;;
12788;SDS011;6458;42.710;23.192;2022-09-06T09:08:31;7.90;;;7.10;;
12788;SDS011;6458;42.710;23.192;2022-09-06T09:10:59;6.97;;;6.27;;
12788;SDS011;6458;42.710;23.192;2022-09-06T09:13:28;6.00;;;5.47;;
12788;SDS011;6458;42.710;23.192;2022-09-06T09:15:56;6.87;;;6.27;;
12788;SDS011;6458;42.710;23.192;2022-09-06T09:18:24;7.03;;;6.33;;
12788;SDS011;6458;42.710;23.192;2022-09-06T09:20:51;7.77;;;7.07;;
12788;SDS011;6458;42.710;23.192;2022-09-06T09:23:19;9.03;;;7.07;;
12788;SDS011;6458;42.710;23.192;2022-09-06T09:25:46;7.50;;;6.90;;
12788;SDS011;6458;42.710;23.192;2022-09-06T09:28:15;7.50;;;6.33;;
12788;SDS011;6458;42.710;23.192;2022-09-06T09:30:46;6.80;;;6.20;;
12788;SDS011;6458;42.710;23.192;2022-09-06T09:33:19;6.63;;;5.93;;
12788;SDS011;6458;42.710;23.192;2022-09-06T09:35:46;6.80;;;6.20;;
12788;SDS011;6458;42.710;23.192;2022-09-06T09:38:19;7.07;;;5.90;;
12788;SDS011;6458;42.710;23.192;2022-09-06T09:40:50;7.57;;;6.53;;
12788;SDS011;6458;42.710;23.192;2022-09-06T09:43:18;6.63;;;6.03;;
12788;SDS011;6458;42.710;23.192;2022-09-06T09:45:46;7.20;;;6.57;;
12788;SDS011;6458;42.710;23.192;2022-09-06T09:48:23;6.90;;;6.37;;
12788;SDS011;6458;42.710;23.192;2022-09-06T09:50:52;8.37;;;6.43;;
12788;SDS011;6458;42.710;23.192;2022-09-06T09:53:20;6.63;;;6.13;;
12788;SDS011;6458;42.710;23.192;2022-09-06T09:55:48;7.00;;;6.40;;
12788;SDS011;6458;42.710;23.192;2022-09-06T09:58:23;6.67;;;6.17;;
12788;SDS011;6458;42.710;23.192;2022-09-06T10:01:07;7.70;;;6.97;;
12788;SDS011;6458;42.710;23.192;2022-09-06T10:03:34;6.73;;;6.23;;
12788;SDS011;6458;42.710;23.192;2022-09-06T10:06:01;7.73;;;6.87;;
12788;SDS011;6458;42.710;23.192;2022-09-06T10:08:30;7.07;;;6.50;;
12788;SDS011;6458;42.710;23.192;2022-09-06T10:10:58;6.77;;;6.17;;
12788;SDS011;6458;42.710;23.192;2022-09-06T10:13:25;6.63;;;6.13;;
12788;SDS011;6458;42.710;23.192;2022-09-06T10:15:54;5.63;;;5.20;;
12788;SDS011;6458;42.710;23.192;2022-09-06T10:18:27;7.97;;;5.63;;
12788;SDS011;6458;42.710;23.192;2022-09-06T10:20:55;6.27;;;5.77;;
12788;SDS011;6458;42.710;23.192;2022-09-06T10:23:24;5.83;;;5.37;;
12788;SDS011;6458;42.710;23.192;2022-09-06T10:25:58;5.73;;;5.33;;
12788;SDS011;6458;42.710;23.192;2022-09-06T10:28:28;5.10;;;4.80;;
12788;SDS011;6458;42.710;23.192;2022-09-06T10:31:01;4.37;;;4.17;;
12788;SDS011;6458;42.710;23.192;2022-09-06T10:33:33;6.37;;;5.53;;
12788;SDS011;6458;42.710;23.192;2022-09-06T10:36:02;5.60;;;5.27;;
12788;SDS011;6458;42.710;23.192;2022-09-06T10:38:36;5.33;;;5.03;;
12788;SDS011;6458;42.710;23.192;2022-09-06T10:41:12;6.10;;;5.60;;
12788;SDS011;6458;42.710;23.192;2022-09-06T10:43:46;6.07;;;5.67;;
12788;SDS011;6458;42.710;23.192;2022-09-06T10:46:14;5.77;;;5.23;;
12788;SDS011;6458;42.710;23.192;2022-09-06T10:48:43;5.73;;;5.23;;
12788;SDS011;6458;42.710;23.192;2022-09-06T10:51:11;5.53;;;5.13;;
12788;SDS011;6458;42.710;23.192;2022-09-06T10:53:44;5.87;;;4.53;;
12788;SDS011;6458;42.710;23.192;2022-09-06T10:56:16;5.20;;;4.83;;
12788;SDS011;6458;42.710;23.192;2022-09-06T10:58:46;4.87;;;4.47;;
12788;SDS011;6458;42.710;23.192;2022-09-06T11:01:18;4.13;;;3.93;;
12788;SDS011;6458;42.710;23.192;2022-09-06T11:03:47;4.77;;;4.37;;
12788;SDS011;6458;42.710;23.192;2022-09-06T11:06:16;4.70;;;4.30;;
12788;SDS011;6458;42.710;23.192;2022-09-06T11:08:44;4.20;;;4.00;;
12788;SDS011;6458;42.710;23.192;2022-09-06T11:11:14;4.63;;;4.33;;
12788;SDS011;6458;42.710;23.192;2022-09-06T11:13:44;4.83;;;4.53;;
12788;SDS011;6458;42.710;23.192;2022-09-06T11:16:12;3.60;;;3.40;;
12788;SDS011;6458;42.710;23.192;2022-09-06T11:18:41;4.17;;;3.87;;
12788;SDS011;6458;42.710;23.192;2022-09-06T11:21:17;3.73;;;3.53;;
12788;SDS011;6458;42.710;23.192;2022-09-06T11:23:47;3.50;;;3.20;;
12788;SDS011;6458;42.710;23.192;2022-09-06T11:26:32;3.40;;;3.20;;
12788;SDS011;6458;42.710;23.192;2022-09-06T11:29:02;2.50;;;2.40;;
12788;SDS011;6458;42.710;23.192;2022-09-06T11:31:30;2.77;;;2.57;;
12788;SDS011;6458;42.710;23.192;2022-09-06T11:34:04;2.97;;;2.87;;
12788;SDS011;6458;42.710;23.192;2022-09-06T11:36:33;2.90;;;2.70;;
12788;SDS011;6458;42.710;23.192;2022-09-06T11:39:00;3.40;;;3.30;;
12788;SDS011;6458;42.710;23.192;2022-09-06T11:41:29;3.13;;;2.93;;
12788;SDS011;6458;42.710;23.192;2022-09-06T11:43:56;3.50;;;3.30;;
12788;SDS011;6458;42.710;23.192;2022-09-06T11:49:09;3.10;;;3.00;;
12788;SDS011;6458;42.710;23.192;2022-09-06T11:51:53;3.23;;;2.93;;
12788;SDS011;6458;42.710;23.192;2022-09-06T11:54:21;3.03;;;2.93;;
12788;SDS011;6458;42.710;23.192;2022-09-06T11:56:51;4.10;;;3.30;;
12788;SDS011;6458;42.710;23.192;2022-09-06T11:59:23;3.03;;;2.93;;
12788;SDS011;6458;42.710;23.192;2022-09-06T12:01:58;3.30;;;3.20;;
12788;SDS011;6458;42.710;23.192;2022-09-06T12:07:19;3.63;;;3.33;;
12788;SDS011;6458;42.710;23.192;2022-09-06T12:09:46;3.40;;;3.30;;
12788;SDS011;6458;42.710;23.192;2022-09-06T12:12:14;3.43;;;3.23;;
12788;SDS011;6458;42.710;23.192;2022-09-06T12:17:45;3.00;;;2.90;;
12788;SDS011;6458;42.710;23.192;2022-09-06T12:22:55;3.90;;;3.20;;
12788;SDS011;6458;42.710;23.192;2022-09-06T12:28:08;3.43;;;3.23;;
12788;SDS011;6458;42.710;23.192;2022-09-06T12:30:37;2.90;;;2.80;;
12788;SDS011;6458;42.710;23.192;2022-09-06T12:33:06;2.67;;;2.57;;
12788;SDS011;6458;42.710;23.192;2022-09-06T12:35:34;2.83;;;2.63;;
12788;SDS011;6458;42.710;23.192;2022-09-06T12:38:03;3.00;;;2.80;;
12788;SDS011;6458;42.710;23.192;2022-09-06T12:40:31;2.83;;;2.73;;
12788;SDS011;6458;42.710;23.192;2022-09-06T12:42:58;3.03;;;2.93;;
12788;SDS011;6458;42.710;23.192;2022-09-06T12:45:27;2.80;;;2.70;;
12788;SDS011;6458;42.710;23.192;2022-09-06T12:48:04;3.60;;;3.30;;
12788;SDS011;6458;42.710;23.192;2022-09-06T12:50:31;2.73;;;2.53;;
12788;SDS011;6458;42.710;23.192;2022-09-06T12:52:58;2.50;;;2.40;;
12788;SDS011;6458;42.710;23.192;2022-09-06T12:55:27;3.10;;;3.00;;
12788;SDS011;6458;42.710;23.192;2022-09-06T12:57:57;2.50;;;2.27;;
12788;SDS011;6458;42.710;23.192;2022-09-06T13:00:24;2.63;;;2.53;;
12788;SDS011;6458;42.710;23.192;2022-09-06T13:02:53;2.90;;;2.80;;
12788;SDS011;6458;42.710;23.192;2022-09-06T13:05:20;3.33;;;2.63;;
12788;SDS011;6458;42.710;23.192;2022-09-06T13:07:48;2.70;;;2.60;;
12788;SDS011;6458;42.710;23.192;2022-09-06T13:10:16;2.47;;;2.37;;
12788;SDS011;6458;42.710;23.192;2022-09-06T13:12:46;2.77;;;2.67;;
12788;SDS011;6458;42.710;23.192;2022-09-06T13:15:16;2.80;;;2.70;;
12788;SDS011;6458;42.710;23.192;2022-09-06T13:17:44;2.67;;;2.57;;
12788;SDS011;6458;42.710;23.192;2022-09-06T13:20:11;2.67;;;2.47;;
12788;SDS011;6458;42.710;23.192;2022-09-06T13:22:40;2.53;;;2.33;;
12788;SDS011;6458;42.710;23.192;2022-09-06T13:25:13;3.47;;;3.07;;
12788;SDS011;6458;42.710;23.192;2022-09-06T13:27:41;2.53;;;2.43;;
12788;SDS011;6458;42.710;23.192;2022-09-06T13:30:28;2.50;;;2.40;;
12788;SDS011;6458;42.710;23.192;2022-09-06T13:32:55;3.33;;;3.13;;
12788;SDS011;6458;42.710;23.192;2022-09-06T13:35:22;5.60;;;2.53;;
12788;SDS011;6458;42.710;23.192;2022-09-06T13:37:49;2.77;;;2.67;;
12788;SDS011;6458;42.710;23.192;2022-09-06T13:43:00;2.53;;;2.43;;
12788;SDS011;6458;42.710;23.192;2022-09-06T13:45:28;2.70;;;2.60;;
12788;SDS011;6458;42.710;23.192;2022-09-06T13:47:55;2.77;;;2.63;;
12788;SDS011;6458;42.710;23.192;2022-09-06T13:50:22;2.57;;;2.47;;
12788;SDS011;6458;42.710;23.192;2022-09-06T13:52:49;2.80;;;2.60;;
12788;SDS011;6458;42.710;23.192;2022-09-06T13:55:16;2.60;;;2.50;;
12788;SDS011;6458;42.710;23.192;2022-09-06T13:57:44;3.80;;;2.53;;
12788;SDS011;6458;42.710;23.192;2022-09-06T14:00:11;3.13;;;2.60;;
12788;SDS011;6458;42.710;23.192;2022-09-06T14:02:39;2.63;;;2.53;;
12788;SDS011;6458;42.710;23.192;2022-09-06T14:05:06;3.17;;;2.87;;
12788;SDS011;6458;42.710;23.192;2022-09-06T14:07:33;2.60;;;2.50;;
12788;SDS011;6458;42.710;23.192;2022-09-06T14:10:00;2.37;;;2.30;;
12788;SDS011;6458;42.710;23.192;2022-09-06T14:12:27;2.93;;;2.80;;
12788;SDS011;6458;42.710;23.192;2022-09-06T14:14:53;2.30;;;2.20;;
12788;SDS011;6458;42.710;23.192;2022-09-06T14:17:20;2.67;;;2.47;;
12788;SDS011;6458;42.710;23.192;2022-09-06T14:19:48;4.73;;;2.60;;
12788;SDS011;6458;42.710;23.192;2022-09-06T14:22:15;2.63;;;2.53;;
12788;SDS011;6458;42.710;23.192;2022-09-06T14:24:41;2.50;;;2.40;;
12788;SDS011;6458;42.710;23.192;2022-09-06T14:27:08;7.37;;;3.33;;
12788;SDS011;6458;42.710;23.192;2022-09-06T14:29:35;2.83;;;2.63;;
12788;SDS011;6458;42.710;23.192;2022-09-06T14:32:02;2.83;;;2.50;;
12788;SDS011;6458;42.710;23.192;2022-09-06T14:34:29;6.00;;;3.23;;
12788;SDS011;6458;42.710;23.192;2022-09-06T14:36:57;2.80;;;2.60;;
12788;SDS011;6458;42.710;23.192;2022-09-06T14:39:24;2.67;;;2.50;;
12788;SDS011;6458;42.710;23.192;2022-09-06T14:41:51;3.00;;;2.80;;
12788;SDS011;6458;42.710;23.192;2022-09-06T14:44:18;2.93;;;2.70;;
12788;SDS011;6458;42.710;23.192;2022-09-06T14:46:45;2.50;;;2.40;;
12788;SDS011;6458;42.710;23.192;2022-09-06T14:49:13;2.70;;;2.60;;
12788;SDS011;6458;42.710;23.192;2022-09-06T14:51:43;2.60;;;2.50;;
12788;SDS011;6458;42.710;23.192;2022-09-06T14:54:19;2.60;;;2.50;;
12788;SDS011;6458;42.710;23.192;2022-09-06T14:56:48;2.70;;;2.60;;
12788;SDS011;6458;42.710;23.192;2022-09-06T14:59:18;3.10;;;3.00;;
12788;SDS011;6458;42.710;23.192;2022-09-06T15:01:45;3.10;;;2.93;;
12788;SDS011;6458;42.710;23.192;2022-09-06T15:04:28;5.40;;;2.90;;
12788;SDS011;6458;42.710;23.192;2022-09-06T15:10:03;3.40;;;3.10;;
12788;SDS011;6458;42.710;23.192;2022-09-06T15:12:30;3.10;;;3.00;;
12788;SDS011;6458;42.710;23.192;2022-09-06T15:15:06;2.97;;;2.87;;
12788;SDS011;6458;42.710;23.192;2022-09-06T15:17:33;2.80;;;2.70;;
12788;SDS011;6458;42.710;23.192;2022-09-06T15:20:00;3.13;;;3.03;;
12788;SDS011;6458;42.710;23.192;2022-09-06T15:22:27;3.03;;;2.90;;
12788;SDS011;6458;42.710;23.192;2022-09-06T15:24:54;3.50;;;3.30;;
12788;SDS011;6458;42.710;23.192;2022-09-06T15:27:22;3.10;;;2.90;;
12788;SDS011;6458;42.710;23.192;2022-09-06T15:29:49;2.97;;;2.87;;
12788;SDS011;6458;42.710;23.192;2022-09-06T15:32:15;3.37;;;3.00;;
12788;SDS011;6458;42.710;23.192;2022-09-06T15:34:44;3.27;;;3.13;;
12788;SDS011;6458;42.710;23.192;2022-09-06T15:37:11;2.97;;;2.83;;
12788;SDS011;6458;42.710;23.192;2022-09-06T15:39:37;3.30;;;3.10;;
12788;SDS011;6458;42.710;23.192;2022-09-06T15:42:04;2.60;;;2.50;;
12788;SDS011;6458;42.710;23.192;2022-09-06T15:44:41;3.10;;;2.87;;
12788;SDS011;6458;42.710;23.192;2022-09-06T15:47:10;2.80;;;2.70;;
12788;SDS011;6458;42.710;23.192;2022-09-06T15:49:37;2.87;;;2.77;;
12788;SDS011;6458;42.710;23.192;2022-09-06T15:52:05;3.17;;;3.00;;
12788;SDS011;6458;42.710;23.192;2022-09-06T15:54:33;3.23;;;3.03;;
12788;SDS011;6458;42.710;23.192;2022-09-06T15:57:32;2.57;;;2.47;;
12788;SDS011;6458;42.710;23.192;2022-09-06T16:00:00;3.13;;;2.93;;
12788;SDS011;6458;42.710;23.192;2022-09-06T16:02:27;3.10;;;2.90;;
12788;SDS011;6458;42.710;23.192;2022-09-06T16:04:53;2.90;;;2.80;;
12788;SDS011;6458;42.710;23.192;2022-09-06T16:07:20;3.10;;;2.90;;
12788;SDS011;6458;42.710;23.192;2022-09-06T16:09:47;3.20;;;3.07;;
12788;SDS011;6458;42.710;23.192;2022-09-06T16:12:14;3.57;;;3.27;;
12788;SDS011;6458;42.710;23.192;2022-09-06T16:14:41;3.33;;;3.00;;
12788;SDS011;6458;42.710;23.192;2022-09-06T16:17:09;3.90;;;3.60;;
12788;SDS011;6458;42.710;23.192;2022-09-06T16:19:36;3.27;;;2.97;;
12788;SDS011;6458;42.710;23.192;2022-09-06T16:22:03;3.57;;;3.37;;
12788;SDS011;6458;42.710;23.192;2022-09-06T16:24:30;3.40;;;3.20;;
12788;SDS011;6458;42.710;23.192;2022-09-06T16:27:06;3.57;;;3.27;;
12788;SDS011;6458;42.710;23.192;2022-09-06T16:29:36;3.77;;;2.93;;
12788;SDS011;6458;42.710;23.192;2022-09-06T16:32:02;2.80;;;2.60;;
12788;SDS011;6458;42.710;23.192;2022-09-06T16:34:31;3.57;;;3.27;;
12788;SDS011;6458;42.710;23.192;2022-09-06T16:36:57;2.90;;;2.80;;
12788;SDS011;6458;42.710;23.192;2022-09-06T16:39:24;3.23;;;3.03;;
12788;SDS011;6458;42.710;23.192;2022-09-06T16:41:51;3.53;;;3.30;;
12788;SDS011;6458;42.710;23.192;2022-09-06T16:44:21;3.07;;;2.90;;
12788;SDS011;6458;42.710;23.192;2022-09-06T16:46:54;3.33;;;3.13;;
12788;SDS011;6458;42.710;23.192;2022-09-06T16:49:25;3.33;;;3.17;;
12788;SDS011;6458;42.710;23.192;2022-09-06T16:51:53;5.83;;;3.70;;
12788;SDS011;6458;42.710;23.192;2022-09-06T16:54:19;5.20;;;4.80;;
12788;SDS011;6458;42.710;23.192;2022-09-06T16:56:46;4.30;;;3.60;;
12788;SDS011;6458;42.710;23.192;2022-09-06T16:59:13;4.27;;;3.13;;
12788;SDS011;6458;42.710;23.192;2022-09-06T17:01:41;3.50;;;3.20;;
12788;SDS011;6458;42.710;23.192;2022-09-06T17:04:08;4.10;;;3.70;;
12788;SDS011;6458;42.710;23.192;2022-09-06T17:06:37;3.20;;;3.00;;
12788;SDS011;6458;42.710;23.192;2022-09-06T17:09:09;5.20;;;3.60;;
12788;SDS011;6458;42.710;23.192;2022-09-06T17:11:37;4.33;;;3.50;;
12788;SDS011;6458;42.710;23.192;2022-09-06T17:14:04;3.90;;;3.67;;
12788;SDS011;6458;42.710;23.192;2022-09-06T17:16:31;4.00;;;3.80;;
12788;SDS011;6458;42.710;23.192;2022-09-06T17:19:23;4.47;;;4.07;;
12788;SDS011;6458;42.710;23.192;2022-09-06T17:21:50;4.63;;;4.17;;
12788;SDS011;6458;42.710;23.192;2022-09-06T17:24:18;7.57;;;4.00;;
12788;SDS011;6458;42.710;23.192;2022-09-06T17:26:48;3.97;;;3.50;;
12788;SDS011;6458;42.710;23.192;2022-09-06T17:29:15;5.77;;;4.40;;
12788;SDS011;6458;42.710;23.192;2022-09-06T17:31:42;3.80;;;3.50;;
12788;SDS011;6458;42.710;23.192;2022-09-06T17:34:08;4.27;;;3.97;;
12788;SDS011;6458;42.710;23.192;2022-09-06T17:36:35;5.10;;;4.70;;
12788;SDS011;6458;42.710;23.192;2022-09-06T17:39:03;5.07;;;4.67;;
12788;SDS011;6458;42.710;23.192;2022-09-06T17:41:33;5.77;;;4.70;;
12788;SDS011;6458;42.710;23.192;2022-09-06T17:44:01;4.90;;;4.50;;
12788;SDS011;6458;42.710;23.192;2022-09-06T17:46:28;3.93;;;3.70;;
12788;SDS011;6458;42.710;23.192;2022-09-06T17:48:55;4.43;;;3.60;;
12788;SDS011;6458;42.710;23.192;2022-09-06T17:51:22;3.83;;;3.53;;
12788;SDS011;6458;42.710;23.192;2022-09-06T17:53:48;4.20;;;3.90;;
12788;SDS011;6458;42.710;23.192;2022-09-06T17:56:16;3.83;;;3.60;;
12788;SDS011;6458;42.710;23.192;2022-09-06T17:58:46;5.07;;;3.47;;
12788;SDS011;6458;42.710;23.192;2022-09-06T18:01:17;4.70;;;3.83;;
12788;SDS011;6458;42.710;23.192;2022-09-06T18:07:03;4.80;;;4.40;;
12788;SDS011;6458;42.710;23.192;2022-09-06T18:09:29;3.90;;;3.70;;
12788;SDS011;6458;42.710;23.192;2022-09-06T18:11:56;4.37;;;4.07;;
12788;SDS011;6458;42.710;23.192;2022-09-06T18:14:24;4.33;;;4.03;;
12788;SDS011;6458;42.710;23.192;2022-09-06T18:16:52;4.77;;;4.47;;
12788;SDS011;6458;42.710;23.192;2022-09-06T18:19:19;4.23;;;3.87;;
12788;SDS011;6458;42.710;23.192;2022-09-06T18:21:47;4.10;;;3.80;;
12788;SDS011;6458;42.710;23.192;2022-09-06T18:24:14;4.07;;;3.77;;
12788;SDS011;6458;42.710;23.192;2022-09-06T18:26:41;4.53;;;4.13;;
12788;SDS011;6458;42.710;23.192;2022-09-06T18:29:08;4.00;;;3.60;;
12788;SDS011;6458;42.710;23.192;2022-09-06T18:31:38;4.50;;;4.07;;
12788;SDS011;6458;42.710;23.192;2022-09-06T18:34:05;4.30;;;3.90;;
12788;SDS011;6458;42.710;23.192;2022-09-06T18:36:32;4.60;;;4.00;;
12788;SDS011;6458;42.710;23.192;2022-09-06T18:38:59;3.77;;;3.57;;
12788;SDS011;6458;42.710;23.192;2022-09-06T18:41:27;3.90;;;3.60;;
12788;SDS011;6458;42.710;23.192;2022-09-06T18:44:11;4.03;;;3.63;;
12788;SDS011;6458;42.710;23.192;2022-09-06T18:46:40;5.10;;;4.07;;
12788;SDS011;6458;42.710;23.192;2022-09-06T18:49:06;4.37;;;3.60;;
12788;SDS011;6458;42.710;23.192;2022-09-06T18:51:33;5.30;;;3.63;;
12788;SDS011;6458;42.710;23.192;2022-09-06T18:54:00;4.30;;;3.80;;
12788;SDS011;6458;42.710;23.192;2022-09-06T18:56:27;6.67;;;3.87;;
12788;SDS011;6458;42.710;23.192;2022-09-06T18:58:54;4.30;;;4.00;;
12788;SDS011;6458;42.710;23.192;2022-09-06T19:01:22;7.93;;;4.30;;
12788;SDS011;6458;42.710;23.192;2022-09-06T19:03:50;4.53;;;4.23;;
12788;SDS011;6458;42.710;23.192;2022-09-06T19:06:17;6.30;;;4.40;;
12788;SDS011;6458;42.710;23.192;2022-09-06T19:08:45;5.73;;;4.80;;
12788;SDS011;6458;42.710;23.192;2022-09-06T19:11:12;5.17;;;4.77;;
12788;SDS011;6458;42.710;23.192;2022-09-06T19:13:41;6.97;;;5.00;;
12788;SDS011;6458;42.710;23.192;2022-09-06T19:16:08;4.90;;;4.50;;
12788;SDS011;6458;42.710;23.192;2022-09-06T19:18:35;4.90;;;4.43;;
12788;SDS011;6458;42.710;23.192;2022-09-06T19:21:04;5.17;;;4.13;;
12788;SDS011;6458;42.710;23.192;2022-09-06T19:23:32;5.03;;;4.53;;
12788;SDS011;6458;42.710;23.192;2022-09-06T19:26:00;4.13;;;3.70;;
12788;SDS011;6458;42.710;23.192;2022-09-06T19:28:28;4.83;;;4.20;;
12788;SDS011;6458;42.710;23.192;2022-09-06T19:30:55;6.03;;;4.53;;
12788;SDS011;6458;42.710;23.192;2022-09-06T19:33:22;5.77;;;5.20;;
12788;SDS011;6458;42.710;23.192;2022-09-06T19:35:49;4.87;;;4.27;;
12788;SDS011;6458;42.710;23.192;2022-09-06T19:38:18;4.37;;;3.97;;
12788;SDS011;6458;42.710;23.192;2022-09-06T19:40:45;4.40;;;4.10;;
12788;SDS011;6458;42.710;23.192;2022-09-06T19:43:12;4.17;;;3.97;;
12788;SDS011;6458;42.710;23.192;2022-09-06T19:45:39;4.93;;;4.53;;
12788;SDS011;6458;42.710;23.192;2022-09-06T19:48:06;4.57;;;4.17;;
12788;SDS011;6458;42.710;23.192;2022-09-06T19:50:33;4.93;;;4.43;;
12788;SDS011;6458;42.710;23.192;2022-09-06T19:53:00;4.83;;;4.43;;
12788;SDS011;6458;42.710;23.192;2022-09-06T19:58:16;5.07;;;4.30;;
12788;SDS011;6458;42.710;23.192;2022-09-06T20:00:43;5.30;;;4.50;;
12788;SDS011;6458;42.710;23.192;2022-09-06T20:03:10;5.63;;;5.10;;
12788;SDS011;6458;42.710;23.192;2022-09-06T20:05:37;5.53;;;5.03;;
12788;SDS011;6458;42.710;23.192;2022-09-06T20:08:04;5.13;;;4.60;;
12788;SDS011;6458;42.710;23.192;2022-09-06T20:10:30;5.10;;;4.20;;
12788;SDS011;6458;42.710;23.192;2022-09-06T20:12:57;4.83;;;4.43;;
12788;SDS011;6458;42.710;23.192;2022-09-06T20:15:25;4.67;;;4.37;;
12788;SDS011;6458;42.710;23.192;2022-09-06T20:17:52;5.23;;;4.33;;
12788;SDS011;6458;42.710;23.192;2022-09-06T20:20:19;4.70;;;4.30;;
12788;SDS011;6458;42.710;23.192;2022-09-06T20:22:46;4.83;;;4.40;;
12788;SDS011;6458;42.710;23.192;2022-09-06T20:25:13;4.77;;;4.23;;
12788;SDS011;6458;42.710;23.192;2022-09-06T20:27:40;5.03;;;4.53;;
12788;SDS011;6458;42.710;23.192;2022-09-06T20:30:07;5.13;;;4.67;;
12788;SDS011;6458;42.710;23.192;2022-09-06T20:32:36;5.33;;;4.83;;
12788;SDS011;6458;42.710;23.192;2022-09-06T20:35:04;4.67;;;4.30;;
12788;SDS011;6458;42.710;23.192;2022-09-06T20:37:31;5.43;;;4.40;;
12788;SDS011;6458;42.710;23.192;2022-09-06T20:39:58;5.87;;;4.30;;
12788;SDS011;6458;42.710;23.192;2022-09-06T20:42:25;5.53;;;4.93;;
12788;SDS011;6458;42.710;23.192;2022-09-06T20:44:51;5.20;;;4.60;;
12788;SDS011;6458;42.710;23.192;2022-09-06T20:47:18;5.20;;;4.67;;
12788;SDS011;6458;42.710;23.192;2022-09-06T20:49:46;5.53;;;5.07;;
12788;SDS011;6458;42.710;23.192;2022-09-06T20:52:13;4.57;;;4.17;;
12788;SDS011;6458;42.710;23.192;2022-09-06T20:54:40;4.90;;;4.40;;
12788;SDS011;6458;42.710;23.192;2022-09-06T20:57:07;5.43;;;4.70;;
12788;SDS011;6458;42.710;23.192;2022-09-06T20:59:34;5.83;;;5.33;;
12788;SDS011;6458;42.710;23.192;2022-09-06T21:02:01;5.10;;;4.70;;
12788;SDS011;6458;42.710;23.192;2022-09-06T21:04:27;7.73;;;4.53;;
12788;SDS011;6458;42.710;23.192;2022-09-06T21:06:56;5.17;;;4.47;;
12788;SDS011;6458;42.710;23.192;2022-09-06T21:09:22;4.50;;;4.20;;
12788;SDS011;6458;42.710;23.192;2022-09-06T21:11:49;6.23;;;5.20;;
12788;SDS011;6458;42.710;23.192;2022-09-06T21:14:17;4.77;;;4.47;;
12788;SDS011;6458;42.710;23.192;2022-09-06T21:16:44;4.93;;;4.53;;
12788;SDS011;6458;42.710;23.192;2022-09-06T21:19:11;7.73;;;4.70;;
12788;SDS011;6458;42.710;23.192;2022-09-06T21:21:38;4.80;;;4.40;;
12788;SDS011;6458;42.710;23.192;2022-09-06T21:24:06;5.13;;;4.43;;
12788;SDS011;6458;42.710;23.192;2022-09-06T21:26:34;4.90;;;4.50;;
12788;SDS011;6458;42.710;23.192;2022-09-06T21:29:01;5.07;;;4.57;;
12788;SDS011;6458;42.710;23.192;2022-09-06T21:31:28;4.90;;;4.50;;
12788;SDS011;6458;42.710;23.192;2022-09-06T21:33:56;5.83;;;4.77;;
12788;SDS011;6458;42.710;23.192;2022-09-06T21:36:24;5.17;;;4.67;;
12788;SDS011;6458;42.710;23.192;2022-09-06T21:38:53;5.17;;;4.77;;
12788;SDS011;6458;42.710;23.192;2022-09-06T21:41:22;5.73;;;5.33;;
12788;SDS011;6458;42.710;23.192;2022-09-06T21:43:50;5.80;;;4.53;;
12788;SDS011;6458;42.710;23.192;2022-09-06T21:46:17;5.57;;;4.63;;
12788;SDS011;6458;42.710;23.192;2022-09-06T21:48:45;5.10;;;4.50;;
12788;SDS011;6458;42.710;23.192;2022-09-06T21:51:15;4.90;;;4.50;;
12788;SDS011;6458;42.710;23.192;2022-09-06T21:53:43;4.50;;;4.17;;
12788;SDS011;6458;42.710;23.192;2022-09-06T21:56:10;6.10;;;4.47;;
12788;SDS011;6458;42.710;23.192;2022-09-06T21:58:39;5.23;;;4.77;;
12788;SDS011;6458;42.710;23.192;2022-09-06T22:01:08;5.07;;;4.57;;